createdAt,value
2019-05-05T00:00:11.860Z,3.53
2019-05-05T00:01:11.833Z,3.61
2019-05-05T00:02:11.802Z,3.68
2019-05-05T00:03:11.777Z,3.72
2019-05-05T00:04:11.746Z,3.75
2019-05-05T00:05:11.715Z,3.78
2019-05-05T00:06:11.687Z,3.54
2019-05-05T00:07:11.658Z,3.60
2019-05-05T00:08:11.628Z,3.58
2019-05-05T00:09:11.600Z,3.53
2019-05-05T00:10:11.571Z,3.58
2019-05-05T00:11:11.543Z,3.68
2019-05-05T00:12:11.513Z,3.62
2019-05-05T00:13:11.485Z,3.57
2019-05-05T00:14:11.455Z,3.65
2019-05-05T00:15:11.426Z,3.60
2019-05-05T00:16:11.397Z,3.62
2019-05-05T00:17:11.368Z,3.50
2019-05-05T00:18:11.338Z,3.53
2019-05-05T00:19:11.310Z,3.67
2019-05-05T00:20:11.280Z,3.76
2019-05-05T00:21:11.251Z,3.70
2019-05-05T00:22:11.223Z,3.75
2019-05-05T00:23:11.194Z,3.70
2019-05-05T00:24:11.915Z,3.78
2019-05-05T00:25:11.136Z,3.70
2019-05-05T00:26:11.108Z,3.70
2019-05-05T00:27:11.078Z,3.57
2019-05-05T00:28:11.049Z,3.67
2019-05-05T00:29:11.020Z,3.65
2019-05-05T00:30:10.993Z,3.80
2019-05-05T00:31:10.962Z,3.82
2019-05-05T00:32:10.933Z,3.79
2019-05-05T00:33:10.904Z,3.88
2019-05-05T00:34:10.875Z,3.83
2019-05-05T00:35:10.847Z,3.79
2019-05-05T00:36:10.817Z,3.78
2019-05-05T00:37:10.789Z,3.62
2019-05-05T00:38:10.758Z,3.53
2019-05-05T00:39:10.731Z,3.42
2019-05-05T00:40:14.114Z,3.47
2019-05-05T00:41:10.677Z,3.64
2019-05-05T00:42:10.643Z,3.62
2019-05-05T00:43:10.615Z,3.50
2019-05-05T00:44:10.586Z,3.53
2019-05-05T00:45:10.557Z,3.50
2019-05-05T00:46:10.528Z,3.49
2019-05-05T00:47:10.499Z,3.40
2019-05-05T00:48:10.470Z,3.52
2019-05-05T00:49:10.441Z,3.39
2019-05-05T00:50:10.412Z,3.40
2019-05-05T00:51:10.383Z,3.49
2019-05-05T00:52:10.354Z,3.49
2019-05-05T00:53:10.325Z,3.53
2019-05-05T00:54:10.296Z,3.34
2019-05-05T00:55:10.268Z,3.34
2019-05-05T00:56:10.237Z,3.52
2019-05-05T00:57:10.208Z,3.34
2019-05-05T00:58:10.181Z,3.21
2019-05-05T00:59:10.152Z,3.15
2019-05-05T01:00:10.122Z,3.20
2019-05-05T01:01:10.094Z,3.21
2019-05-05T01:02:10.065Z,3.20
2019-05-05T01:03:10.036Z,3.34
2019-05-05T01:04:10.006Z,3.28
2019-05-05T01:05:09.977Z,3.34
2019-05-05T01:06:09.949Z,3.24
2019-05-05T01:07:14.284Z,3.16
2019-05-05T01:08:09.891Z,3.24
2019-05-05T01:09:09.862Z,3.34
2019-05-05T01:10:09.834Z,3.42
2019-05-05T01:11:09.805Z,3.34
2019-05-05T01:12:09.776Z,3.50
2019-05-05T01:13:09.746Z,3.47
2019-05-05T01:14:09.718Z,3.50
2019-05-05T01:15:09.689Z,3.53
2019-05-05T01:16:09.659Z,3.34
2019-05-05T01:17:09.631Z,3.49
2019-05-05T01:18:09.609Z,3.40
2019-05-05T01:19:09.574Z,3.39
2019-05-05T01:20:09.545Z,3.31
2019-05-05T01:21:09.521Z,3.28
2019-05-05T01:22:09.487Z,3.31
2019-05-05T01:23:09.459Z,3.21
2019-05-05T01:24:09.429Z,3.24
2019-05-05T01:25:09.403Z,3.12
2019-05-05T01:26:09.373Z,3.21
2019-05-05T01:27:09.344Z,3.16
2019-05-05T01:28:09.314Z,3.20
2019-05-05T01:29:09.287Z,3.20
2019-05-05T01:30:09.257Z,3.20
2019-05-05T01:31:09.232Z,3.15
2019-05-05T01:32:09.200Z,3.12
2019-05-05T01:33:09.173Z,3.13
2019-05-05T01:34:09.893Z,3.10
2019-05-05T01:35:09.114Z,3.12
2019-05-05T01:36:09.085Z,3.07
2019-05-05T01:37:09.061Z,3.03
2019-05-05T01:38:09.037Z,3.02
2019-05-05T01:39:08.999Z,2.97
2019-05-05T01:40:08.970Z,3.03
2019-05-05T01:41:08.947Z,3.12
2019-05-05T01:42:08.914Z,3.02
2019-05-05T01:43:08.884Z,3.15
2019-05-05T01:44:08.858Z,3.07
2019-05-05T01:45:09.576Z,3.21
2019-05-05T01:46:08.800Z,3.18
2019-05-05T01:47:08.769Z,3.18
2019-05-05T01:48:08.739Z,3.23
2019-05-05T01:49:08.711Z,3.23
2019-05-05T01:50:18.291Z,3.18
2019-05-05T01:51:08.654Z,3.16
2019-05-05T01:52:08.624Z,3.20
2019-05-05T01:53:08.596Z,3.12
2019-05-05T01:54:08.567Z,3.24
2019-05-05T01:55:08.539Z,3.25
2019-05-05T01:56:08.509Z,3.25
2019-05-05T01:57:08.481Z,3.21
2019-05-05T01:58:08.456Z,3.18
2019-05-05T01:59:08.424Z,3.21
2019-05-05T02:00:08.395Z,3.24
2019-05-05T02:01:08.366Z,3.20
2019-05-05T02:02:08.341Z,3.16
2019-05-05T02:03:08.311Z,3.16
2019-05-05T02:04:08.280Z,3.09
2019-05-05T02:05:08.253Z,3.00
2019-05-05T02:06:08.973Z,3.02
2019-05-05T02:07:08.196Z,3.00
2019-05-05T02:08:08.167Z,3.02
2019-05-05T02:09:08.137Z,2.97
2019-05-05T02:10:08.111Z,2.91
2019-05-05T02:11:08.081Z,2.97
2019-05-05T02:12:08.051Z,3.00
2019-05-05T02:13:08.028Z,3.05
2019-05-05T02:14:07.995Z,3.13
2019-05-05T02:15:07.967Z,3.13
2019-05-05T02:16:07.936Z,3.13
2019-05-05T02:17:09.410Z,3.10
2019-05-05T02:18:07.880Z,3.13
2019-05-05T02:19:07.852Z,3.12
2019-05-05T02:20:07.827Z,3.07
2019-05-05T02:21:07.794Z,3.02
2019-05-05T02:22:07.769Z,3.16
2019-05-05T02:23:07.738Z,3.20
2019-05-05T02:24:07.708Z,3.13
2019-05-05T02:25:07.683Z,3.18
2019-05-05T02:26:07.653Z,3.10
2019-05-05T02:27:07.622Z,3.13
2019-05-05T02:28:07.593Z,3.10
2019-05-05T02:29:07.565Z,3.20
2019-05-05T02:30:07.537Z,3.21
2019-05-05T02:31:07.516Z,3.31
2019-05-05T02:32:07.479Z,3.30
2019-05-05T02:33:07.459Z,3.27
2019-05-05T02:34:07.425Z,3.28
2019-05-05T02:35:07.399Z,3.34
2019-05-05T02:36:07.364Z,3.39
2019-05-05T02:37:07.336Z,3.36
2019-05-05T02:38:07.309Z,3.40
2019-05-05T02:39:07.279Z,3.31
2019-05-05T02:40:07.753Z,3.31
2019-05-05T02:41:07.219Z,3.30
2019-05-05T02:42:07.193Z,3.25
2019-05-05T02:43:07.164Z,3.20
2019-05-05T02:44:07.132Z,3.13
2019-05-05T02:45:07.106Z,3.24
2019-05-05T02:46:07.080Z,3.27
2019-05-05T02:47:07.050Z,3.30
2019-05-05T02:48:07.029Z,3.39
2019-05-05T02:49:06.990Z,3.31
2019-05-05T02:50:06.982Z,3.23
2019-05-05T02:51:07.447Z,3.25
2019-05-05T02:52:06.905Z,3.33
2019-05-05T02:53:06.875Z,3.28
2019-05-05T02:54:06.846Z,3.36
2019-05-05T02:55:06.819Z,3.36
2019-05-05T02:56:06.789Z,3.42
2019-05-05T02:57:06.760Z,3.42
2019-05-05T02:58:06.732Z,3.36
2019-05-05T02:59:06.703Z,3.40
2019-05-05T03:00:06.674Z,3.39
2019-05-05T03:01:06.646Z,3.31
2019-05-05T03:02:06.624Z,3.33
2019-05-05T03:03:06.589Z,3.39
2019-05-05T03:04:06.566Z,3.20
2019-05-05T03:05:08.032Z,3.28
2019-05-05T03:06:06.502Z,3.36
2019-05-05T03:07:06.477Z,3.34
2019-05-05T03:08:06.445Z,3.31
2019-05-05T03:09:06.416Z,3.42
2019-05-05T03:10:06.388Z,3.40
2019-05-05T03:11:07.110Z,3.46
2019-05-05T03:12:06.329Z,3.42
2019-05-05T03:13:06.305Z,3.42
2019-05-05T03:14:06.274Z,3.42
2019-05-05T03:15:06.244Z,3.43
2019-05-05T03:16:06.215Z,3.42
2019-05-05T03:17:06.186Z,3.42
2019-05-05T03:18:06.159Z,3.39
2019-05-05T03:19:06.130Z,3.33
2019-05-05T03:20:06.099Z,3.33
2019-05-05T03:21:07.503Z,3.31
2019-05-05T03:22:06.046Z,3.36
2019-05-05T03:23:06.014Z,3.31
2019-05-05T03:24:05.985Z,3.39
2019-05-05T03:25:05.958Z,3.42
2019-05-05T03:26:05.926Z,3.47
2019-05-05T03:27:06.651Z,3.39
2019-05-05T03:28:05.869Z,3.49
2019-05-05T03:29:05.841Z,3.50
2019-05-05T03:30:05.822Z,3.43
2019-05-05T03:31:05.787Z,3.57
2019-05-05T03:32:07.359Z,3.47
2019-05-05T03:33:05.883Z,3.49
2019-05-05T03:34:06.366Z,3.52
2019-05-05T03:35:05.671Z,3.50
2019-05-05T03:36:05.639Z,3.54
2019-05-05T03:37:05.612Z,3.60
2019-05-05T03:38:05.582Z,3.57
2019-05-05T03:39:05.555Z,3.52
2019-05-05T03:40:05.524Z,3.57
2019-05-05T03:41:05.496Z,3.49
2019-05-05T03:42:05.467Z,3.57
2019-05-05T03:43:05.439Z,3.47
2019-05-05T03:44:05.408Z,3.43
2019-05-05T03:45:05.382Z,3.52
2019-05-05T03:46:05.352Z,3.54
2019-05-05T03:47:05.325Z,3.49
2019-05-05T03:48:06.796Z,3.52
2019-05-05T03:49:05.267Z,3.47
2019-05-05T03:50:05.239Z,3.40
2019-05-05T03:51:17.461Z,3.49
2019-05-05T03:52:05.180Z,3.54
2019-05-05T03:53:05.156Z,3.40
2019-05-05T03:54:05.123Z,3.36
2019-05-05T03:55:05.097Z,3.44
2019-05-05T03:56:05.065Z,3.40
2019-05-05T03:57:05.037Z,3.34
2019-05-05T03:58:05.008Z,3.33
2019-05-05T03:59:05.073Z,3.39
2019-05-05T04:00:04.951Z,3.28
2019-05-05T04:01:04.922Z,3.34
2019-05-05T04:02:04.894Z,3.42
2019-05-05T04:03:04.864Z,3.42
2019-05-05T04:04:04.836Z,3.36
2019-05-05T04:05:04.808Z,3.49
2019-05-05T04:06:04.787Z,3.52
2019-05-05T04:07:04.964Z,3.39
2019-05-05T04:08:04.730Z,3.57
2019-05-05T04:09:04.692Z,3.54
2019-05-05T04:10:05.414Z,3.49
2019-05-05T04:11:04.637Z,3.65
2019-05-05T04:12:04.695Z,3.65
2019-05-05T04:13:04.801Z,3.68
2019-05-05T04:14:04.550Z,3.65
2019-05-05T04:15:04.519Z,3.64
2019-05-05T04:16:04.492Z,3.75
2019-05-05T04:17:04.462Z,3.72
2019-05-05T04:18:04.434Z,3.72
2019-05-05T04:19:04.407Z,3.82
2019-05-05T04:20:04.376Z,3.76
2019-05-05T04:21:04.348Z,3.80
2019-05-05T04:22:04.399Z,3.78
2019-05-05T04:23:04.293Z,3.72
2019-05-05T04:24:04.263Z,3.80
2019-05-05T04:25:04.697Z,3.67
2019-05-05T04:26:04.205Z,3.75
2019-05-05T04:27:04.179Z,3.61
2019-05-05T04:28:04.480Z,3.58
2019-05-05T04:29:05.381Z,3.53
2019-05-05T04:30:04.114Z,3.58
2019-05-05T04:31:04.286Z,3.50
2019-05-05T04:32:04.648Z,3.68
2019-05-05T04:33:04.005Z,3.71
2019-05-05T04:34:04.242Z,3.62
2019-05-05T04:35:03.948Z,3.68
2019-05-05T04:36:04.004Z,3.71
2019-05-05T04:37:04.241Z,3.72
2019-05-05T04:38:04.750Z,3.64
2019-05-05T04:39:03.885Z,3.72
2019-05-05T04:40:04.206Z,3.68
2019-05-05T04:41:03.782Z,3.67
2019-05-05T04:42:04.801Z,3.70
2019-05-05T04:43:04.002Z,3.72
2019-05-05T04:44:04.061Z,3.76
2019-05-05T04:45:04.263Z,3.80
2019-05-05T04:46:04.573Z,3.86
2019-05-05T04:47:04.354Z,3.89
2019-05-05T04:48:04.296Z,3.86
2019-05-05T04:49:03.633Z,3.90
2019-05-05T04:50:04.298Z,3.97
2019-05-05T04:51:04.775Z,3.85
2019-05-05T04:52:04.149Z,3.79
2019-05-05T04:53:04.543Z,3.72
2019-05-05T04:54:03.890Z,3.82
2019-05-05T04:55:03.941Z,3.92
2019-05-05T04:56:04.249Z,3.92
2019-05-05T04:57:04.489Z,3.94
2019-05-05T04:58:04.605Z,4.00
2019-05-05T04:59:04.013Z,3.96
2019-05-05T05:00:04.175Z,3.94
2019-05-05T05:01:04.699Z,3.92
2019-05-05T05:02:04.001Z,3.89
2019-05-05T05:03:04.467Z,3.88
2019-05-05T05:04:03.731Z,4.04
2019-05-05T05:05:04.021Z,3.90
2019-05-05T05:06:04.127Z,4.00
2019-05-05T05:07:04.672Z,4.01
2019-05-05T05:08:03.729Z,3.89
2019-05-05T05:09:04.035Z,4.00
2019-05-05T05:10:04.430Z,4.03
2019-05-05T05:11:03.695Z,4.08
2019-05-05T05:12:04.047Z,4.03
2019-05-05T05:13:04.622Z,4.03
2019-05-05T05:14:03.842Z,3.98
2019-05-05T05:15:04.287Z,4.06
2019-05-05T05:16:04.524Z,4.12
2019-05-05T05:17:03.494Z,4.14
2019-05-05T05:18:04.091Z,4.10
2019-05-05T05:19:04.316Z,4.15
2019-05-05T05:20:03.748Z,4.18
2019-05-05T05:21:03.991Z,4.22
2019-05-05T05:22:04.859Z,4.18
2019-05-05T05:23:03.714Z,4.14
2019-05-05T05:24:04.026Z,4.15
2019-05-05T05:25:04.438Z,4.21
2019-05-05T05:26:04.869Z,4.15
2019-05-05T05:27:02.456Z,4.18
2019-05-05T05:28:04.202Z,4.07
2019-05-05T05:29:04.352Z,4.12
2019-05-05T05:30:04.535Z,4.12
2019-05-05T05:31:03.858Z,4.18
2019-05-05T05:32:04.155Z,4.16
2019-05-05T05:33:04.179Z,4.16
2019-05-05T05:34:04.237Z,4.10
2019-05-05T05:35:03.717Z,4.15
2019-05-05T05:36:04.048Z,4.24
2019-05-05T05:37:04.133Z,4.28
2019-05-05T05:38:04.428Z,4.29
2019-05-05T05:39:03.449Z,4.36
2019-05-05T05:40:03.894Z,4.33
2019-05-05T05:41:04.139Z,4.42
2019-05-05T05:42:02.030Z,4.24
2019-05-05T05:43:02.001Z,4.19
2019-05-05T05:44:03.605Z,4.19
2019-05-05T05:45:03.949Z,4.33
2019-05-05T05:46:01.917Z,4.39
2019-05-05T05:47:03.645Z,4.33
2019-05-05T05:48:03.995Z,4.40
2019-05-05T05:49:01.831Z,4.44
2019-05-05T05:50:03.859Z,4.51
2019-05-05T05:51:04.072Z,4.50
2019-05-05T05:52:12.567Z,4.62
2019-05-05T05:53:01.718Z,4.61
2019-05-05T05:54:03.633Z,4.51
2019-05-05T05:55:01.664Z,4.40
2019-05-05T05:56:01.634Z,4.50
2019-05-05T05:57:01.606Z,4.51
2019-05-05T05:58:01.578Z,4.59
2019-05-05T05:59:03.528Z,4.54
2019-05-05T06:00:05.276Z,4.39
2019-05-05T06:01:01.495Z,4.51
2019-05-05T06:02:11.478Z,4.55
2019-05-05T06:03:01.439Z,4.52
2019-05-05T06:04:01.410Z,4.54
2019-05-05T06:05:01.386Z,4.59
2019-05-05T06:06:06.609Z,4.55
2019-05-05T06:07:03.881Z,4.54
2019-05-05T06:08:01.298Z,4.61
2019-05-05T06:09:01.270Z,4.59
2019-05-05T06:10:03.543Z,4.75
2019-05-05T06:11:01.214Z,4.70
2019-05-05T06:12:04.188Z,4.64
2019-05-05T06:13:01.157Z,4.62
2019-05-05T06:14:01.130Z,4.73
2019-05-05T06:15:01.107Z,4.84
2019-05-05T06:16:01.074Z,4.70
2019-05-05T06:17:01.046Z,4.79
2019-05-05T06:18:04.484Z,4.73
2019-05-05T06:19:00.991Z,4.69
2019-05-05T06:20:00.962Z,4.88
2019-05-05T06:21:00.939Z,4.99
2019-05-05T06:22:00.913Z,4.89
2019-05-05T06:23:00.879Z,4.83
2019-05-05T06:24:04.294Z,4.91
2019-05-05T06:25:00.824Z,4.89
2019-05-05T06:26:00.797Z,4.99
2019-05-05T06:27:00.769Z,4.94
2019-05-05T06:28:00.740Z,4.95
2019-05-05T06:29:00.712Z,5.05
2019-05-05T06:30:01.437Z,5.20
2019-05-05T06:31:00.658Z,5.14
2019-05-05T06:32:00.628Z,5.01
2019-05-05T06:33:00.609Z,4.94
2019-05-05T06:34:00.574Z,4.98
2019-05-05T06:35:00.547Z,5.02
2019-05-05T06:36:00.518Z,5.02
2019-05-05T06:37:00.491Z,5.16
2019-05-05T06:38:00.463Z,5.23
2019-05-05T06:39:00.436Z,5.19
2019-05-05T06:40:00.408Z,5.04
2019-05-05T06:41:00.381Z,4.98
2019-05-05T06:42:00.354Z,5.14
2019-05-05T06:43:00.326Z,5.19
2019-05-05T06:44:00.298Z,5.22
2019-05-05T06:45:00.272Z,5.28
2019-05-05T06:46:00.244Z,5.25
2019-05-05T06:47:00.217Z,5.20
2019-05-05T06:48:00.191Z,5.28
2019-05-05T06:49:00.162Z,5.16
2019-05-05T06:50:00.134Z,5.30
2019-05-05T06:51:00.106Z,5.27
2019-05-05T06:52:00.078Z,5.38
2019-05-05T06:53:00.051Z,5.32
2019-05-05T06:54:00.025Z,5.34
2019-05-05T06:55:00.004Z,5.37
2019-05-05T06:55:59.968Z,5.12
2019-05-05T06:56:59.942Z,5.19
2019-05-05T06:57:59.916Z,5.12
2019-05-05T06:58:59.888Z,5.13
2019-05-05T06:59:59.859Z,5.19
2019-05-05T07:00:59.835Z,5.34
2019-05-05T07:01:59.805Z,5.32
2019-05-05T07:02:59.778Z,5.27
2019-05-05T07:03:59.750Z,5.28
2019-05-05T07:04:59.723Z,5.35
2019-05-05T07:05:59.696Z,5.38
2019-05-05T07:06:59.668Z,5.30
2019-05-05T07:07:59.639Z,5.35
2019-05-05T07:08:59.613Z,5.31
2019-05-05T07:09:59.587Z,5.40
2019-05-05T07:10:59.649Z,5.40
2019-05-05T07:11:59.539Z,5.30
2019-05-05T07:13:00.267Z,5.25
2019-05-05T07:13:59.477Z,5.25
2019-05-05T07:14:59.450Z,5.22
2019-05-05T07:15:59.422Z,5.25
2019-05-05T07:16:59.394Z,5.23
2019-05-05T07:17:59.367Z,5.20
2019-05-05T07:18:59.340Z,5.37
2019-05-05T07:19:59.314Z,5.40
2019-05-05T07:20:59.285Z,5.37
2019-05-05T07:21:59.257Z,5.41
2019-05-05T07:23:02.464Z,5.38
2019-05-05T07:23:59.953Z,5.41
2019-05-05T07:24:59.175Z,5.28
2019-05-05T07:25:59.148Z,5.32
2019-05-05T07:26:59.120Z,5.38
2019-05-05T07:27:59.091Z,5.41
2019-05-05T07:28:59.066Z,5.48
2019-05-05T07:29:59.038Z,5.53
2019-05-05T07:30:59.023Z,5.55
2019-05-05T07:31:58.990Z,5.41
2019-05-05T07:32:58.955Z,5.41
2019-05-05T07:33:58.929Z,5.35
2019-05-05T07:34:58.901Z,5.40
2019-05-05T07:36:03.221Z,5.55
2019-05-05T07:36:58.846Z,5.40
2019-05-05T07:37:58.818Z,5.46
2019-05-05T07:38:58.794Z,5.40
2019-05-05T07:39:58.764Z,5.46
2019-05-05T07:40:58.739Z,5.57
2019-05-05T07:41:58.710Z,5.50
2019-05-05T07:42:58.685Z,5.48
2019-05-05T07:43:58.655Z,5.53
2019-05-05T07:44:58.627Z,5.55
2019-05-05T07:45:58.600Z,5.68
2019-05-05T07:46:58.574Z,5.71
2019-05-05T07:47:58.546Z,5.70
2019-05-05T07:48:58.518Z,5.68
2019-05-05T07:49:58.497Z,5.60
2019-05-05T07:51:04.479Z,5.68
2019-05-05T07:51:58.493Z,5.70
2019-05-05T07:53:11.513Z,5.66
2019-05-05T07:53:58.382Z,5.68
2019-05-05T07:54:58.356Z,5.77
2019-05-05T07:55:58.327Z,5.96
2019-05-05T07:56:58.299Z,6.06
2019-05-05T07:57:58.273Z,5.96
2019-05-05T07:58:58.247Z,6.01
2019-05-05T07:59:58.219Z,5.91
2019-05-05T08:00:58.191Z,6.07
2019-05-05T08:01:58.165Z,6.18
2019-05-05T08:02:58.139Z,6.18
2019-05-05T08:03:58.111Z,6.09
2019-05-05T08:04:58.085Z,6.16
2019-05-05T08:05:58.057Z,6.10
2019-05-05T08:06:58.032Z,6.30
2019-05-05T08:07:58.005Z,6.36
2019-05-05T08:08:57.998Z,6.35
2019-05-05T08:09:57.953Z,6.56
2019-05-05T08:10:57.927Z,6.51
2019-05-05T08:11:57.899Z,6.32
2019-05-05T08:12:57.875Z,6.18
2019-05-05T08:13:57.848Z,6.38
2019-05-05T08:14:57.822Z,6.58
2019-05-05T08:16:00.055Z,6.81
2019-05-05T08:16:58.520Z,6.95
2019-05-05T08:17:57.744Z,7.01
2019-05-05T08:18:57.720Z,6.97
2019-05-05T08:19:57.691Z,6.76
2019-05-05T08:20:57.666Z,6.46
2019-05-05T08:21:57.639Z,6.53
2019-05-05T08:22:57.615Z,6.65
2019-05-05T08:23:57.588Z,6.73
2019-05-05T08:24:57.564Z,6.84
2019-05-05T08:25:57.540Z,6.80
2019-05-05T08:26:57.539Z,6.83
2019-05-05T08:27:57.486Z,6.81
2019-05-05T08:28:57.463Z,6.94
2019-05-05T08:29:57.441Z,7.12
2019-05-05T08:30:57.411Z,7.31
2019-05-05T08:31:57.384Z,7.59
2019-05-05T08:32:57.361Z,7.63
2019-05-05T08:33:57.335Z,7.87
2019-05-05T08:35:00.802Z,7.77
2019-05-05T08:35:57.287Z,7.87
2019-05-05T08:36:59.826Z,7.94
2019-05-05T08:37:57.235Z,7.87
2019-05-05T08:38:57.210Z,7.90
2019-05-05T08:39:57.184Z,7.92
2019-05-05T08:40:57.158Z,7.79
2019-05-05T08:41:57.135Z,7.75
2019-05-05T08:42:57.110Z,7.79
2019-05-05T08:43:57.085Z,7.50
2019-05-05T08:44:57.060Z,7.27
2019-05-05T08:45:57.036Z,7.32
2019-05-05T08:46:57.011Z,7.09
2019-05-05T08:47:56.985Z,6.97
2019-05-05T08:48:56.959Z,6.95
2019-05-05T08:49:56.934Z,6.98
2019-05-05T08:50:56.911Z,6.90
2019-05-05T08:51:56.884Z,7.02
2019-05-05T08:52:57.610Z,6.59
2019-05-05T08:53:56.861Z,6.68
2019-05-05T08:54:56.815Z,6.71
2019-05-05T08:55:56.782Z,6.73
2019-05-05T08:56:56.758Z,6.79
2019-05-05T08:57:56.732Z,6.97
2019-05-05T08:58:56.707Z,7.04
2019-05-05T08:59:56.680Z,6.86
2019-05-05T09:00:56.655Z,6.83
2019-05-05T09:01:56.630Z,6.79
2019-05-05T09:02:56.606Z,6.68
2019-05-05T09:03:56.577Z,6.59
2019-05-05T09:04:56.554Z,6.72
2019-05-05T09:05:56.526Z,6.84
2019-05-05T09:06:56.501Z,6.79
2019-05-05T09:07:56.474Z,6.91
2019-05-05T09:08:56.449Z,6.98
2019-05-05T09:09:56.423Z,6.99
2019-05-05T09:10:56.396Z,7.01
2019-05-05T09:11:56.375Z,7.13
2019-05-05T09:12:56.345Z,7.02
2019-05-05T09:13:56.319Z,7.19
2019-05-05T09:14:56.294Z,7.42
2019-05-05T09:15:56.268Z,7.67
2019-05-05T09:16:56.243Z,7.72
2019-05-05T09:17:56.217Z,7.63
2019-05-05T09:18:56.192Z,7.58
2019-05-05T09:19:56.169Z,7.77
2019-05-05T09:20:56.141Z,7.67
2019-05-05T09:21:56.116Z,7.60
2019-05-05T09:22:57.344Z,7.74
2019-05-05T09:24:02.179Z,7.78
2019-05-05T09:24:56.042Z,7.58
2019-05-05T09:25:56.014Z,7.53
2019-05-05T09:26:55.989Z,7.55
2019-05-05T09:27:55.963Z,7.49
2019-05-05T09:28:55.939Z,7.32
2019-05-05T09:29:55.913Z,7.17
2019-05-05T09:30:55.889Z,7.08
2019-05-05T09:31:55.862Z,7.05
2019-05-05T09:32:55.837Z,6.90
2019-05-05T09:33:55.811Z,6.81
2019-05-05T09:34:55.786Z,6.94
2019-05-05T09:35:55.759Z,7.09
2019-05-05T09:36:55.736Z,7.02
2019-05-05T09:37:55.709Z,7.08
2019-05-05T09:38:55.684Z,7.12
2019-05-05T09:39:55.657Z,7.12
2019-05-05T09:40:55.634Z,7.29
2019-05-05T09:41:55.606Z,7.26
2019-05-05T09:42:55.581Z,7.13
2019-05-05T09:43:55.554Z,7.04
2019-05-05T09:44:55.529Z,7.16
2019-05-05T09:45:55.504Z,7.13
2019-05-05T09:46:55.478Z,7.13
2019-05-05T09:47:55.452Z,7.27
2019-05-05T09:48:55.428Z,7.24
2019-05-05T09:49:55.401Z,7.34
2019-05-05T09:50:55.376Z,7.38
2019-05-05T09:51:55.349Z,7.47
2019-05-05T09:52:55.324Z,7.47
2019-05-05T09:53:55.300Z,7.53
2019-05-05T09:54:55.272Z,7.38
2019-05-05T09:55:55.246Z,7.35
2019-05-05T09:56:55.221Z,7.31
2019-05-05T09:57:55.196Z,7.35
2019-05-05T09:58:55.171Z,7.44
2019-05-05T09:59:55.144Z,7.47
2019-05-05T10:00:55.119Z,7.50
2019-05-05T10:01:55.094Z,7.62
2019-05-05T10:02:55.070Z,7.52
2019-05-05T10:03:55.042Z,7.56
2019-05-05T10:04:55.017Z,7.78
2019-05-05T10:05:54.997Z,7.81
2019-05-05T10:06:54.966Z,7.81
2019-05-05T10:07:54.940Z,7.69
2019-05-05T10:08:55.665Z,7.79
2019-05-05T10:09:54.890Z,7.77
2019-05-05T10:10:54.879Z,7.66
2019-05-05T10:11:54.838Z,7.69
2019-05-05T10:12:55.035Z,7.78
2019-05-05T10:13:54.787Z,7.87
2019-05-05T10:14:54.763Z,7.82
2019-05-05T10:15:54.983Z,8.07
2019-05-05T10:16:54.714Z,8.02
2019-05-05T10:17:54.688Z,8.03
2019-05-05T10:18:54.662Z,7.90
2019-05-05T10:19:54.764Z,7.97
2019-05-05T10:20:54.612Z,7.96
2019-05-05T10:21:54.587Z,8.02
2019-05-05T10:22:54.562Z,8.02
2019-05-05T10:23:54.537Z,7.94
2019-05-05T10:24:57.581Z,7.96
2019-05-05T10:25:54.487Z,7.78
2019-05-05T10:26:54.462Z,7.90
2019-05-05T10:27:54.436Z,8.07
2019-05-05T10:28:54.411Z,8.22
2019-05-05T10:29:54.813Z,8.15
2019-05-05T10:30:54.363Z,8.03
2019-05-05T10:31:54.336Z,8.07
2019-05-05T10:32:54.655Z,7.96
2019-05-05T10:33:54.289Z,8.10
2019-05-05T10:34:54.263Z,8.20
2019-05-05T10:35:54.281Z,8.18
2019-05-05T10:36:54.215Z,8.14
2019-05-05T10:37:54.560Z,8.29
2019-05-05T10:38:54.164Z,8.17
2019-05-05T10:39:54.434Z,8.18
2019-05-05T10:40:54.115Z,8.00
2019-05-05T10:41:56.190Z,7.92
2019-05-05T10:42:54.214Z,7.79
2019-05-05T10:43:54.265Z,7.89
2019-05-05T10:44:54.017Z,7.96
2019-05-05T10:45:54.648Z,8.14
2019-05-05T10:46:54.042Z,7.97
2019-05-05T10:47:53.942Z,7.75
2019-05-05T10:48:53.920Z,7.84
2019-05-05T10:49:54.488Z,7.72
2019-05-05T10:50:53.869Z,7.79
2019-05-05T10:51:54.443Z,7.75
2019-05-05T10:52:53.823Z,7.58
2019-05-05T10:53:54.518Z,7.52
2019-05-05T10:54:54.833Z,7.34
2019-05-05T10:55:54.007Z,7.40
2019-05-05T10:56:53.721Z,7.35
2019-05-05T10:57:54.414Z,7.47
2019-05-05T10:58:54.596Z,7.45
2019-05-05T10:59:54.042Z,7.27
2019-05-05T11:00:54.463Z,7.32
2019-05-05T11:01:53.922Z,7.35
2019-05-05T11:02:54.319Z,7.56
2019-05-05T11:03:53.543Z,7.58
2019-05-05T11:04:54.593Z,7.87
2019-05-05T11:05:53.936Z,7.79
2019-05-05T11:06:54.599Z,7.81
2019-05-05T11:07:53.802Z,7.60
2019-05-05T11:08:54.021Z,7.59
2019-05-05T11:09:53.393Z,7.63
2019-05-05T11:10:53.367Z,7.49
2019-05-05T11:11:53.351Z,7.50
2019-05-05T11:12:53.574Z,7.49
2019-05-05T11:13:54.268Z,7.62
2019-05-05T11:14:54.481Z,7.60
2019-05-05T11:15:54.647Z,7.59
2019-05-05T11:16:54.651Z,7.74
2019-05-05T11:17:54.247Z,7.74
2019-05-05T11:18:54.034Z,7.96
2019-05-05T11:19:53.143Z,7.97
2019-05-05T11:20:54.842Z,7.97
2019-05-05T11:21:54.029Z,7.79
2019-05-05T11:22:54.187Z,7.78
2019-05-05T11:23:53.926Z,7.74
2019-05-05T11:24:59.329Z,7.78
2019-05-05T11:25:54.495Z,7.85
2019-05-05T11:26:53.968Z,8.07
2019-05-05T11:27:54.157Z,8.03
2019-05-05T11:28:53.870Z,8.12
2019-05-05T11:29:54.053Z,8.10
2019-05-05T11:30:53.769Z,8.25
2019-05-05T11:31:52.840Z,8.30
2019-05-05T11:32:52.815Z,8.50
2019-05-05T11:33:54.207Z,8.47
2019-05-05T11:34:53.498Z,8.35
2019-05-05T11:35:53.942Z,8.22
2019-05-05T11:36:54.371Z,8.28
2019-05-05T11:37:54.252Z,8.18
2019-05-05T11:38:53.710Z,8.10
2019-05-05T11:39:53.678Z,8.17
2019-05-05T11:40:54.481Z,8.15
2019-05-05T11:41:54.634Z,8.18
2019-05-05T11:42:54.129Z,8.25
2019-05-05T11:43:53.444Z,8.32
2019-05-05T11:44:52.522Z,8.48
2019-05-05T11:45:54.434Z,8.57
2019-05-05T11:46:54.512Z,8.65
2019-05-05T11:47:53.663Z,8.68
2019-05-05T11:48:54.413Z,8.86
2019-05-05T11:49:56.192Z,8.84
2019-05-05T11:50:54.087Z,9.23
2019-05-05T11:51:54.229Z,9.32
2019-05-05T11:52:54.333Z,9.49
2019-05-05T11:53:54.051Z,9.60
2019-05-05T11:54:54.292Z,9.67
2019-05-05T11:55:52.249Z,9.70
2019-05-05T11:56:53.945Z,9.79
2019-05-05T11:57:54.134Z,9.83
2019-05-05T11:58:52.185Z,9.61
2019-05-05T11:59:53.943Z,9.32
2019-05-05T12:00:54.321Z,9.56
2019-05-05T12:01:54.689Z,9.78
2019-05-05T12:02:52.083Z,9.91
2019-05-05T12:03:53.588Z,10.17
2019-05-05T12:04:53.946Z,10.17
2019-05-05T12:05:52.012Z,10.01
2019-05-05T12:06:51.989Z,9.94
2019-05-05T12:07:54.025Z,10.12
2019-05-05T12:08:51.942Z,9.89
2019-05-05T12:09:51.919Z,9.76
2019-05-05T12:10:54.049Z,9.79
2019-05-05T12:11:51.873Z,9.48
2019-05-05T12:12:53.598Z,9.32
2019-05-05T12:13:51.825Z,9.48
2019-05-05T12:14:53.757Z,9.49
2019-05-05T12:15:53.685Z,9.39
2019-05-05T12:16:51.754Z,9.49
2019-05-05T12:17:51.731Z,9.52
2019-05-05T12:18:53.908Z,9.42
2019-05-05T12:19:53.981Z,9.56
2019-05-05T12:20:51.661Z,9.58
2019-05-05T12:21:51.639Z,9.56
2019-05-05T12:22:51.614Z,9.53
2019-05-05T12:23:51.590Z,9.66
2019-05-05T12:24:53.407Z,9.68
2019-05-05T12:25:56.404Z,9.81
2019-05-05T12:26:51.520Z,9.81
2019-05-05T12:27:51.496Z,9.78
2019-05-05T12:28:51.477Z,9.97
2019-05-05T12:29:54.570Z,9.97
2019-05-05T12:30:51.430Z,9.94
2019-05-05T12:31:51.402Z,10.12
2019-05-05T12:32:51.380Z,10.37
2019-05-05T12:33:51.365Z,10.10
2019-05-05T12:34:51.335Z,10.00
2019-05-05T12:35:53.905Z,10.28
2019-05-05T12:36:51.285Z,10.42
2019-05-05T12:37:51.265Z,10.39
2019-05-05T12:38:51.239Z,10.18
2019-05-05T12:39:51.215Z,10.28
2019-05-05T12:40:53.004Z,10.21
2019-05-05T12:41:51.170Z,10.25
2019-05-05T12:42:51.146Z,10.15
2019-05-05T12:43:51.122Z,9.89
2019-05-05T12:44:51.104Z,10.09
2019-05-05T12:45:51.075Z,10.09
2019-05-05T12:46:51.053Z,9.94
2019-05-05T12:47:51.028Z,9.79
2019-05-05T12:48:51.005Z,9.85
2019-05-05T12:49:50.981Z,10.14
2019-05-05T12:50:50.958Z,10.17
2019-05-05T12:51:50.934Z,10.24
2019-05-05T12:52:50.911Z,10.26
2019-05-05T12:53:50.888Z,10.06
2019-05-05T12:54:50.865Z,9.82
2019-05-05T12:55:50.841Z,9.56
2019-05-05T12:56:50.817Z,9.48
2019-05-05T12:57:50.794Z,9.38
2019-05-05T12:58:50.771Z,9.40
2019-05-05T12:59:50.748Z,9.25
2019-05-05T13:00:50.723Z,9.23
2019-05-05T13:01:50.700Z,9.31
2019-05-05T13:02:53.784Z,9.20
2019-05-05T13:03:50.653Z,9.16
2019-05-05T13:04:50.631Z,9.15
2019-05-05T13:05:50.605Z,9.34
2019-05-05T13:06:50.580Z,9.30
2019-05-05T13:07:50.556Z,9.43
2019-05-05T13:08:52.034Z,9.64
2019-05-05T13:09:50.509Z,9.85
2019-05-05T13:10:50.485Z,10.09
2019-05-05T13:11:50.462Z,10.47
2019-05-05T13:12:50.439Z,10.74
2019-05-05T13:13:50.414Z,10.95
2019-05-05T13:14:50.390Z,10.71
2019-05-05T13:15:50.366Z,10.60
2019-05-05T13:16:53.308Z,10.94